Time;durP1;ratioP1;P1;durP2;ratioP2;P2;SDS_P1;SDS_P2;PMS_P1;PMS_P2;Temp;Humidity;BMP_temperature;BMP_pressure;BME280_temperature;BME280_humidity;BME280_pressure;Samples;Min_cycle;Max_cycle;Signal;HPM_P1;HPM_P2
2023/01/02 00:00:24;;;;;;;16.92;5.30;;;;;;;12.10;92.91;100736.06;5094376;28;20089;-61
2023/01/02 00:02:51;;;;;;;24.88;6.47;;;;;;;12.15;93.55;100732.88;5095905;28;20044;-61
2023/01/02 00:05:18;;;;;;;14.25;4.65;;;;;;;12.19;92.58;100734.25;5094518;28;20055;-61
2023/01/02 00:07:44;;;;;;;18.33;5.70;;;;;;;12.01;94.76;100726.41;5094989;28;20122;-61
2023/01/02 00:10:12;;;;;;;19.55;5.85;;;;;;;12.00;96.42;100732.72;5095485;28;20054;-61
2023/01/02 00:12:39;;;;;;;22.10;4.88;;;;;;;12.03;95.57;100722.56;5095885;28;20047;-62
2023/01/02 00:15:06;;;;;;;27.52;5.68;;;;;;;11.93;96.21;100721.06;5094296;28;20048;-61
2023/01/02 00:17:33;;;;;;;17.77;6.00;;;;;;;11.98;94.82;100724.06;5094084;28;20040;-61
2023/01/02 00:19:59;;;;;;;20.55;5.20;;;;;;;11.94;94.85;100728.88;5076905;28;20113;-62
2023/01/02 00:22:26;;;;;;;19.20;5.95;;;;;;;11.98;97.68;100724.06;5095091;28;20428;-61
2023/01/02 00:24:53;;;;;;;18.33;5.50;;;;;;;11.96;97.08;100726.88;5095385;28;20051;-61
2023/01/02 00:27:19;;;;;;;19.15;5.20;;;;;;;12.02;96.96;100725.41;5093919;28;20040;-61
2023/01/02 00:29:46;;;;;;;18.40;4.68;;;;;;;12.05;96.56;100722.41;5095269;28;20443;-61
2023/01/02 00:32:14;;;;;;;27.50;5.10;;;;;;;12.00;97.41;100733.53;5076891;28;20098;-61
2023/01/02 00:35:00;;;;;;;22.77;5.30;;;;;;;12.01;97.35;100740.53;5095167;28;20083;-61
2023/01/02 00:37:27;;;;;;;21.98;5.70;;;;;;;12.01;98.49;100739.69;5093790;28;20047;-62
2023/01/02 00:39:53;;;;;;;22.48;5.70;;;;;;;12.02;99.15;100734.19;5094924;28;20550;-61
2023/01/02 00:42:20;;;;;;;23.13;4.80;;;;;;;12.00;97.74;100727.38;5094212;28;20044;-61
2023/01/02 00:44:47;;;;;;;22.92;5.47;;;;;;;12.09;97.74;100731.72;5094697;28;20397;-61
2023/01/02 00:47:13;;;;;;;18.38;4.97;;;;;;;12.06;97.85;100727.56;5110531;28;20051;-61
2023/01/02 00:49:41;;;;;;;14.27;4.72;;;;;;;12.04;99.67;100723.41;5094961;28;20048;-61
2023/01/02 00:52:08;;;;;;;15.05;5.05;;;;;;;12.02;100.00;100723.56;5094656;28;20494;-61
2023/01/02 00:54:35;;;;;;;24.02;5.05;;;;;;;11.97;100.00;100722.38;5094832;28;20508;-61
2023/01/02 00:57:02;;;;;;;21.42;5.10;;;;;;;11.95;99.94;100719.06;5094906;28;20048;-61
2023/01/02 00:59:28;;;;;;;25.50;5.63;;;;;;;11.97;100.00;100722.38;5094387;28;20044;-61
2023/01/02 01:01:56;;;;;;;21.42;5.40;;;;;;;11.97;100.00;100720.59;5094001;28;20051;-61
2023/01/02 01:04:22;;;;;;;19.42;5.22;;;;;;;11.97;100.00;100712.59;5094405;28;20044;-61
2023/01/02 01:06:49;;;;;;;23.60;5.18;;;;;;;11.92;100.00;100716.75;5092852;28;20044;-61
2023/01/02 01:09:16;;;;;;;19.98;5.47;;;;;;;11.88;100.00;100713.56;5094500;28;20048;-61
2023/01/02 01:11:44;;;;;;;17.30;5.47;;;;;;;11.86;100.00;100711.06;5084095;28;20087;-61
2023/01/02 01:14:11;;;;;;;21.45;5.25;;;;;;;11.84;100.00;100705.09;5072682;28;20090;-61
2023/01/02 01:16:37;;;;;;;19.30;5.50;;;;;;;11.81;100.00;100707.22;5089708;28;20040;-61
2023/01/02 01:19:04;;;;;;;17.05;5.38;;;;;;;11.82;100.00;100707.03;5093621;28;20057;-61
2023/01/02 01:21:31;;;;;;;18.60;5.60;;;;;;;11.78;100.00;100711.03;5094355;28;20056;-61
2023/01/02 01:23:57;;;;;;;18.17;5.32;;;;;;;11.76;100.00;100704.22;5094159;28;20048;-61
2023/01/02 01:26:25;;;;;;;16.83;5.30;;;;;;;11.76;100.00;100707.72;5094184;28;20062;-61
2023/01/02 01:28:53;;;;;;;27.27;5.88;;;;;;;11.77;100.00;100697.91;5093165;28;20044;-61
2023/01/02 01:31:21;;;;;;;21.90;5.28;;;;;;;11.72;100.00;100699.22;5075080;28;20056;-61
2023/01/02 01:33:48;;;;;;;20.98;5.35;;;;;;;11.71;100.00;100694.06;5074014;28;20045;-61
2023/01/02 01:36:17;;;;;;;23.00;6.78;;;;;;;11.64;100.00;100695.72;5073351;28;20044;-61
2023/01/02 01:38:45;;;;;;;22.20;5.50;;;;;;;11.66;100.00;100685.75;5072461;28;20044;-61
2023/01/02 01:41:14;;;;;;;17.10;5.53;;;;;;;11.65;100.00;100687.59;5073369;28;20123;-61
2023/01/02 01:43:44;;;;;;;24.33;6.10;;;;;;;11.65;100.00;100692.06;5073635;28;20048;-61
2023/01/02 01:46:34;;;;;;;21.73;5.65;;;;;;;11.71;100.00;100702.91;5086482;28;20040;-61
2023/01/02 01:49:13;;;;;;;22.98;5.60;;;;;;;11.72;100.00;100693.91;5093718;28;20505;-61
2023/01/02 01:52:01;;;;;;;23.92;5.60;;;;;;;11.73;100.00;100686.75;5092204;28;20114;-61
2023/01/02 01:54:35;;;;;;;14.25;4.93;;;;;;;11.69;100.00;100696.88;5093756;28;20044;-61
2023/01/02 01:57:10;;;;;;;15.90;5.05;;;;;;;11.74;100.00;100703.56;5092159;28;20506;-61
2023/01/02 01:59:38;;;;;;;21.65;5.78;;;;;;;11.74;100.00;100708.88;5093521;28;20046;-61
2023/01/02 02:02:05;;;;;;;23.50;5.05;;;;;;;11.79;100.00;100706.53;5078622;28;20051;-61
2023/01/02 02:04:33;;;;;;;16.45;5.78;;;;;;;11.77;100.00;100698.75;5073415;28;20044;-61
2023/01/02 02:07:01;;;;;;;17.20;4.97;;;;;;;11.80;100.00;100709.03;5071180;28;20049;-61
2023/01/02 02:09:40;;;;;;;12.68;4.80;;;;;;;11.87;99.75;100707.38;5073207;28;20044;-61
2023/01/02 02:12:07;;;;;;;19.45;4.53;;;;;;;11.93;97.59;100719.22;5073158;28;20528;-62
2023/01/02 02:14:34;;;;;;;14.90;4.68;;;;;;;11.93;97.51;100721.88;5073368;28;20048;-61
2023/01/02 02:17:30;;;;;;;16.10;4.50;;;;;;;11.94;97.32;100720.09;5093183;28;20048;-61
2023/01/02 02:20:24;;;;;;;16.80;4.55;;;;;;;11.95;97.70;100716.41;5091773;28;20048;-61
2023/01/02 02:23:20;;;;;;;25.42;5.22;;;;;;;11.99;97.77;100715.06;5093325;28;20486;-61
2023/01/02 02:26:22;;;;;;;19.85;5.25;;;;;;;12.06;97.76;100718.75;5092983;28;20048;-61
2023/01/02 02:29:28;;;;;;;23.00;5.05;;;;;;;12.02;98.17;100717.41;5093181;28;20048;-61
2023/01/02 02:32:24;;;;;;;18.10;4.85;;;;;;;12.00;99.06;100719.41;5092863;28;20070;-61
2023/01/02 02:35:01;;;;;;;18.83;4.43;;;;;;;12.09;94.96;100716.59;5093294;28;20052;-61
2023/01/02 02:38:07;;;;;;;23.17;5.72;;;;;;;12.08;96.29;100717.59;5093202;28;20051;-62
2023/01/02 02:40:48;;;;;;;21.10;5.38;;;;;;;12.08;96.45;100717.59;5092873;28;20397;-61
2023/01/02 02:43:40;;;;;;;17.27;4.70;;;;;;;12.08;96.76;100706.97;5092906;28;20066;-61
2023/01/02 02:46:43;;;;;;;20.92;5.47;;;;;;;12.09;98.22;100690.00;5093149;28;20051;-61
2023/01/02 02:49:21;;;;;;;12.88;4.47;;;;;;;12.06;98.20;100690.34;5092657;28;20044;-62
2023/01/02 02:51:58;;;;;;;16.77;4.35;;;;;;;12.03;96.62;100692.50;5092050;28;20047;-62
2023/01/02 02:54:43;;;;;;;18.80;4.72;;;;;;;12.12;96.72;100688.03;5092788;28;20040;-62
2023/01/02 02:57:11;;;;;;;16.33;4.63;;;;;;;12.05;96.75;100678.03;5093327;28;20055;-62
2023/01/02 02:59:40;;;;;;;18.00;4.97;;;;;;;12.02;97.75;100681.03;5092961;28;20066;-61
2023/01/02 03:02:09;;;;;;;20.25;4.97;;;;;;;12.06;96.82;100681.53;5092650;28;20036;-62
2023/01/02 03:04:35;;;;;;;19.45;4.70;;;;;;;12.08;97.76;100692.84;5093038;28;20058;-62
2023/01/02 03:10:28;;;;;;;22.05;6.32;;;;;;;12.07;96.21;100713.28;5111327;27;20369;-60
2023/01/02 03:13:11;;;;;;;24.77;4.60;;;;;;;12.05;95.05;100717.09;5109917;28;20048;-61
2023/01/02 03:15:51;;;;;;;20.90;5.15;;;;;;;12.08;97.08;100722.09;5110059;28;20043;-62
2023/01/02 03:18:41;;;;;;;17.20;4.63;;;;;;;12.10;96.48;100734.22;5110875;28;20503;-62
2023/01/02 03:21:14;;;;;;;15.70;4.95;;;;;;;12.09;96.26;100713.09;5110715;28;20229;-62
2023/01/02 03:23:44;;;;;;;20.77;5.10;;;;;;;12.05;97.95;100712.59;5110843;28;20043;-63
2023/01/02 03:26:16;;;;;;;25.95;5.65;;;;;;;12.00;97.43;100708.78;5110900;28;20401;-62
2023/01/02 03:28:47;;;;;;;21.67;5.38;;;;;;;11.95;99.45;100719.91;5110855;28;20127;-63
2023/01/02 03:31:18;;;;;;;18.02;5.43;;;;;;;11.93;99.44;100691.81;5111088;28;20051;-62
2023/01/02 03:33:52;;;;;;;21.60;4.88;;;;;;;11.86;98.35;100713.72;5110130;28;20461;-62
2023/01/02 03:36:24;;;;;;;19.52;4.82;;;;;;;11.92;97.51;100706.13;5109218;28;20508;-63
2023/01/02 03:39:00;;;;;;;;;;;;;;;11.85;98.00;100709.38;5111370;28;20161;-62
2023/01/02 03:41:32;;;;;;;22.35;5.05;;;;;;;11.87;98.76;100707.38;5109097;28;19942;-62
2023/01/02 03:44:00;;;;;;;15.85;5.82;;;;;;;11.85;97.36;100712.03;5111029;28;20140;-62
2023/01/02 03:46:36;;;;;;;23.13;5.53;;;;;;;11.86;98.15;100713.72;5110182;28;20055;-62
2023/01/02 03:49:10;;;;;;;21.20;5.03;;;;;;;11.80;98.33;100702.91;5110549;28;20032;-61
2023/01/02 03:51:37;;;;;;;17.55;5.03;;;;;;;11.82;98.61;100717.69;5110136;28;20398;-61
2023/01/02 03:54:04;;;;;;;17.90;4.78;;;;;;;11.87;98.13;100728.66;5110474;28;20447;-61
2023/01/02 03:56:55;;;;;;;26.80;6.15;;;;;;;11.86;97.64;100724.34;5110623;28;20044;-61
2023/01/02 04:02:11;;;;;;;17.75;5.32;;;;;;;11.78;96.03;100726.16;5100829;27;20400;-61
2023/01/02 04:05:03;;;;;;;24.38;5.45;;;;;;;11.87;96.46;100723.34;5090471;28;20048;-61
2023/01/02 04:07:47;;;;;;;21.15;5.38;;;;;;;11.85;97.56;100724.50;5089792;28;20051;-62
2023/01/02 04:10:15;;;;;;;23.15;5.80;;;;;;;11.84;97.61;100720.19;5090473;28;20490;-61
2023/01/02 04:12:48;;;;;;;21.77;4.85;;;;;;;11.85;97.86;100725.34;5090671;28;20387;-62
2023/01/02 04:15:20;;;;;;;24.77;5.20;;;;;;;11.78;95.70;100719.00;5089273;28;20047;-61
2023/01/02 04:17:53;;;;;;;24.90;5.65;;;;;;;11.80;94.66;100721.50;5090595;28;20546;-61
2023/01/02 04:20:25;;;;;;;20.63;4.97;;;;;;;11.90;92.31;100723.06;5106070;28;20041;-61
2023/01/02 04:22:59;;;;;;;13.95;4.90;;;;;;;11.86;96.10;100726.16;5090734;28;20041;-61
2023/01/02 04:25:38;;;;;;;15.48;4.85;;;;;;;11.92;94.04;100727.38;5090352;28;20040;-61
2023/01/02 04:28:18;;;;;;;20.73;5.10;;;;;;;11.82;95.59;100715.00;5089497;28;20050;-62
2023/01/02 04:30:51;;;;;;;26.73;4.97;;;;;;;11.92;93.65;100740.69;5106312;28;20048;-61
2023/01/02 04:33:21;;;;;;;24.20;5.40;;;;;;;11.83;95.79;100735.31;5106111;28;20071;-61
2023/01/02 04:35:48;;;;;;;13.68;4.57;;;;;;;11.87;93.87;100728.66;5089299;28;20135;-62
2023/01/02 04:38:15;;;;;;;23.83;5.25;;;;;;;11.95;90.74;100740.34;5088973;28;20448;-61
2023/01/02 04:40:42;;;;;;;25.08;5.00;;;;;;;11.94;92.42;100738.69;5089901;28;20040;-61
2023/01/02 04:43:17;;;;;;;20.35;4.68;;;;;;;12.00;91.44;100743.34;5090156;28;20448;-61
2023/01/02 04:45:47;;;;;;;18.70;4.18;;;;;;;12.05;89.70;100747.16;5089886;28;20068;-61
2023/01/02 04:48:14;;;;;;;15.10;4.18;;;;;;;12.20;88.17;100742.03;5089823;28;20048;-61
2023/01/02 04:50:41;;;;;;;20.48;4.97;;;;;;;12.25;89.12;100744.22;5089931;28;20482;-61
2023/01/02 04:53:09;;;;;;;15.05;4.68;;;;;;;12.28;88.28;100746.56;5089907;28;20406;-61
2023/01/02 04:55:37;;;;;;;18.63;4.47;;;;;;;12.21;89.15;100748.22;5089611;28;20041;-61
2023/01/02 04:58:04;;;;;;;21.98;4.75;;;;;;;12.27;89.86;100744.88;5089807;28;20450;-61
2023/01/02 05:00:31;;;;;;;15.10;4.30;;;;;;;12.28;89.34;100747.38;5089212;28;20084;-62
2023/01/02 05:03:00;;;;;;;17.10;3.85;;;;;;;12.35;88.08;100752.03;5089584;28;20127;-62
2023/01/02 05:05:27;;;;;;;18.88;4.38;;;;;;;12.49;87.15;100754.84;5089518;28;20048;-61
2023/01/02 05:07:54;;;;;;;18.90;4.13;;;;;;;12.52;85.91;100745.72;5089224;28;20048;-61
2023/01/02 05:10:21;;;;;;;11.68;3.90;;;;;;;12.64;85.61;100765.69;5088558;28;20044;-61
2023/01/02 05:12:48;;;;;;;15.48;4.28;;;;;;;12.58;88.23;100757.53;5078245;28;20070;-61
2023/01/02 05:15:14;;;;;;;14.20;4.07;;;;;;;12.59;87.14;100754.69;5076001;28;20094;-61
2023/01/02 05:17:42;;;;;;;16.58;3.97;;;;;;;12.61;86.81;100763.34;5075702;28;20079;-62
2023/01/02 05:20:11;;;;;;;27.80;4.30;;;;;;;12.74;86.40;100778.81;5075956;28;20121;-61
2023/01/02 05:25:30;;;;;;;16.58;3.90;;;;;;;12.84;85.49;100773.31;5088641;28;20501;-61
2023/01/02 05:27:57;;;;;;;15.90;4.10;;;;;;;12.66;88.09;100773.47;5075854;28;20055;-61
2023/01/02 05:30:24;;;;;;;11.77;3.75;;;;;;;12.65;88.38;100782.47;5091362;28;20044;-61
2023/01/02 05:32:52;;;;;;;13.30;3.95;;;;;;;12.62;88.41;100772.97;5090914;28;20044;-62
2023/01/02 05:35:19;;;;;;;14.00;3.60;;;;;;;12.64;88.26;100778.13;5074271;28;20048;-61
2023/01/02 05:37:46;;;;;;;13.20;3.70;;;;;;;12.79;87.34;100778.31;5075841;28;20049;-61
2023/01/02 05:40:13;;;;;;;17.83;3.88;;;;;;;12.65;89.63;100785.13;5075054;28;20048;-62
2023/01/02 05:42:39;;;;;;;12.70;3.70;;;;;;;12.70;88.99;100789.94;5091267;28;20032;-62
2023/01/02 05:45:07;;;;;;;17.00;3.88;;;;;;;12.74;87.85;100785.97;5075207;28;20045;-62
2023/01/02 05:47:33;;;;;;;13.13;3.33;;;;;;;12.69;88.33;100794.44;5090616;28;20041;-61
2023/01/02 05:50:01;;;;;;;13.57;3.30;;;;;;;12.75;87.54;100791.13;5075644;28;20044;-62
2023/01/02 05:52:28;;;;;;;12.15;3.85;;;;;;;12.72;88.44;100794.13;5075436;28;20083;-61
2023/01/02 05:54:54;;;;;;;18.17;4.32;;;;;;;12.58;90.26;100798.25;5090811;28;20059;-61
2023/01/02 05:57:21;;;;;;;12.18;3.58;;;;;;;12.65;89.48;100787.78;5075017;28;20090;-61
2023/01/02 05:59:48;;;;;;;11.73;3.40;;;;;;;12.61;89.57;100800.59;5090674;28;20048;-61
2023/01/02 06:02:14;;;;;;;11.38;3.13;;;;;;;12.65;89.09;100819.75;5071006;28;20051;-61
2023/01/02 06:04:41;;;;;;;13.90;3.55;;;;;;;12.67;89.98;100802.59;5073758;28;20094;-61
2023/01/02 06:07:08;;;;;;;9.85;2.88;;;;;;;12.64;88.87;100794.97;5074402;28;20685;-61
2023/01/02 06:09:34;;;;;;;12.45;3.20;;;;;;;12.62;89.31;100804.91;5073464;28;20042;-61
2023/01/02 06:12:02;;;;;;;15.48;3.42;;;;;;;12.60;89.61;100798.94;5074806;28;20444;-61
2023/01/02 06:14:28;;;;;;;14.38;2.90;;;;;;;12.56;90.05;100799.44;5073486;28;20059;-61
2023/01/02 06:16:57;;;;;;;11.25;3.35;;;;;;;12.51;90.45;100799.09;5074624;28;20102;-61
2023/01/02 06:19:24;;;;;;;17.00;3.25;;;;;;;12.51;90.59;100799.09;5074830;28;20044;-61
2023/01/02 06:21:51;;;;;;;9.93;3.20;;;;;;;12.58;89.77;100805.44;5089939;28;20494;-61
2023/01/02 06:24:18;;;;;;;12.38;3.33;;;;;;;12.59;90.04;100810.59;5089226;28;20044;-62
2023/01/02 06:26:45;;;;;;;15.32;5.55;;;;;;;12.60;89.69;100816.72;5074521;28;20123;-62
2023/01/02 06:29:11;;;;;;;10.68;3.15;;;;;;;12.57;89.22;100809.94;5074656;28;20041;-62
2023/01/02 06:31:38;;;;;;;10.50;3.30;;;;;;;12.57;89.63;100819.72;5073912;28;20040;-62
2023/01/02 06:34:05;;;;;;;11.82;3.20;;;;;;;12.61;89.15;100821.06;5074625;28;20051;-62
2023/01/02 06:36:33;;;;;;;15.05;3.38;;;;;;;12.54;89.85;100817.41;5073343;28;20036;-62
2023/01/02 06:39:00;;;;;;;11.48;3.10;;;;;;;12.62;88.03;100814.72;5074598;28;20040;-62
2023/01/02 06:41:27;;;;;;;10.13;3.30;;;;;;;12.58;90.52;100824.88;5089787;28;20071;-62
2023/01/02 06:43:53;;;;;;;10.75;3.25;;;;;;;12.49;90.56;100826.69;5072884;28;20090;-62
2023/01/02 06:46:22;;;;;;;18.40;3.63;;;;;;;12.58;89.27;100830.19;5074262;28;20044;-62
2023/01/02 06:48:49;;;;;;;9.65;3.15;;;;;;;12.56;89.45;100829.53;5074063;28;20106;-62
2023/01/02 06:51:18;;;;;;;11.85;3.13;;;;;;;12.55;89.53;100829.69;5074200;28;20047;-63
2023/01/02 06:53:46;;;;;;;10.70;3.00;;;;;;;12.59;89.06;100831.06;5073976;28;20066;-63
2023/01/02 06:56:15;;;;;;;11.75;3.35;;;;;;;12.59;90.05;100833.72;5073866;28;20406;-62
2023/01/02 06:58:42;;;;;;;10.85;3.17;;;;;;;12.50;89.27;100827.53;5073835;28;20041;-63
2023/01/02 07:01:12;;;;;;;14.13;3.50;;;;;;;12.50;90.62;100830.22;5073504;28;20482;-63
2023/01/02 07:03:39;;;;;;;11.93;3.35;;;;;;;12.49;89.95;100834.66;5073616;28;20445;-62
2023/01/02 07:06:09;;;;;;;9.45;2.92;;;;;;;12.45;89.54;100829.84;5071476;28;20043;-63
2023/01/02 07:08:36;;;;;;;9.45;3.13;;;;;;;12.56;89.21;100840.19;5054695;28;20037;-62
2023/01/02 07:11:07;;;;;;;12.38;3.28;;;;;;;12.48;90.32;100845.50;5067349;28;20041;-62
2023/01/02 07:13:34;;;;;;;14.87;3.47;;;;;;;12.56;89.92;100847.34;5053691;28;20095;-63
2023/01/02 07:16:03;;;;;;;13.48;2.92;;;;;;;12.40;90.18;100854.28;5072828;28;20110;-62
2023/01/02 07:18:31;;;;;;;12.30;3.15;;;;;;;12.34;90.87;100852.28;5071959;28;20041;-63
2023/01/02 07:20:59;;;;;;;20.20;2.92;;;;;;;12.43;92.01;100861.13;5073725;28;20048;-63
2023/01/02 07:23:26;;;;;;;10.77;3.15;;;;;;;12.41;90.71;100865.78;5073592;28;20076;-63
2023/01/02 07:25:55;;;;;;;9.65;3.38;;;;;;;12.35;92.08;100861.94;5089175;28;20094;-62
2023/01/02 07:28:22;;;;;;;12.85;3.65;;;;;;;12.35;92.50;100864.59;5088879;28;20040;-62
2023/01/02 07:30:50;;;;;;;13.13;3.03;;;;;;;12.21;93.61;100860.72;5073285;28;20040;-62
2023/01/02 07:33:16;;;;;;;16.50;3.50;;;;;;;12.20;92.93;100874.19;5073155;28;20127;-62
2023/01/02 07:35:44;;;;;;;11.80;2.90;;;;;;;12.17;93.41;100878.00;5073290;28;20045;-62
2023/01/02 07:38:11;;;;;;;13.20;3.20;;;;;;;12.14;93.85;100890.78;5073354;28;20071;-62
2023/01/02 07:40:38;;;;;;;11.73;3.20;;;;;;;12.15;93.66;100885.31;5072659;28;20036;-62
2023/01/02 07:43:04;;;;;;;12.65;3.42;;;;;;;12.05;94.39;100895.25;5073686;28;20044;-63
2023/01/02 07:45:33;;;;;;;15.55;3.88;;;;;;;12.02;95.50;100898.22;5071707;28;20494;-63
2023/01/02 07:48:00;;;;;;;12.55;3.75;;;;;;;11.96;96.06;100891.72;5072028;28;20070;-64
2023/01/02 07:50:26;;;;;;;11.95;3.42;;;;;;;11.95;98.17;100891.88;5073245;28;20045;-62
2023/01/02 07:52:53;;;;;;;14.15;3.42;;;;;;;11.88;98.54;100908.44;5073187;28;20137;-62
2023/01/02 07:55:20;;;;;;;12.43;3.90;;;;;;;11.96;98.25;100909.50;5088600;28;20036;-63
2023/01/02 07:57:47;;;;;;;11.82;3.35;;;;;;;11.85;97.76;100908.75;5088499;28;20036;-63
2023/01/02 08:00:16;;;;;;;11.10;3.63;;;;;;;11.88;99.06;100916.41;5072837;28;20049;-62
2023/01/02 08:02:43;;;;;;;11.20;3.30;;;;;;;11.86;99.05;100921.03;5061915;28;20032;-63
2023/01/02 08:05:10;;;;;;;11.60;3.13;;;;;;;11.78;98.73;100925.47;5068260;28;20053;-63
2023/01/02 08:07:37;;;;;;;12.77;3.75;;;;;;;11.76;99.48;100927.47;5051561;28;20049;-62
2023/01/02 08:10:06;;;;;;;11.55;3.58;;;;;;;11.83;99.46;100932.00;5053037;28;20498;-63
2023/01/02 08:12:33;;;;;;;11.10;3.58;;;;;;;11.74;100.00;100932.09;5052745;28;20038;-63
2023/01/02 08:15:00;;;;;;;8.55;3.38;;;;;;;11.69;100.00;100944.03;5056378;28;20048;-63
2023/01/02 08:17:28;;;;;;;11.43;3.50;;;;;;;11.68;100.00;100952.19;5072638;28;20041;-62
2023/01/02 08:19:56;;;;;;;15.88;3.45;;;;;;;11.55;100.00;100957.91;5072866;28;20048;-63
2023/01/02 08:22:25;;;;;;;11.48;3.50;;;;;;;11.62;100.00;100961.56;5072359;28;20390;-62
2023/01/02 08:24:51;;;;;;;14.00;3.65;;;;;;;11.72;100.00;100961.50;5073140;28;20068;-63
2023/01/02 08:27:18;;;;;;;13.45;4.18;;;;;;;11.67;100.00;100969.09;5072861;28;20167;-63
2023/01/02 08:29:45;;;;;;;15.75;4.38;;;;;;;11.51;100.00;100961.84;5071759;28;20505;-63
2023/01/02 08:32:11;;;;;;;11.48;3.05;;;;;;;11.54;100.00;100977.47;5072561;28;20486;-62
2023/01/02 08:34:38;;;;;;;14.57;4.10;;;;;;;11.50;100.00;100992.88;5088390;28;20080;-63
2023/01/02 08:37:05;;;;;;;13.43;3.45;;;;;;;11.48;100.00;100992.22;5072767;28;20045;-63
2023/01/02 08:39:32;;;;;;;15.93;3.53;;;;;;;11.41;100.00;100990.31;5072958;28;20090;-62
2023/01/02 08:42:00;;;;;;;12.43;3.50;;;;;;;11.38;100.00;100999.41;5071528;28;20052;-63
2023/01/02 08:44:27;;;;;;;13.40;3.70;;;;;;;11.46;100.00;101003.97;5072889;28;20044;-62
2023/01/02 08:46:53;;;;;;;10.65;3.30;;;;;;;11.41;100.00;101012.41;5089097;28;20169;-62
2023/01/02 08:49:20;;;;;;;15.65;3.50;;;;;;;11.41;100.00;101020.38;5091758;28;20051;-62
2023/01/02 08:51:47;;;;;;;8.68;3.10;;;;;;;11.34;100.00;101014.00;5075677;28;20051;-62
2023/01/02 08:54:13;;;;;;;13.18;3.58;;;;;;;11.37;100.00;101021.66;5075163;28;20040;-63
2023/01/02 08:56:41;;;;;;;12.88;3.22;;;;;;;11.44;100.00;101036.00;5076701;28;20037;-62
2023/01/02 08:59:10;;;;;;;14.35;3.38;;;;;;;11.27;100.00;101082.00;5091405;28;20044;-62
2023/01/02 09:01:38;;;;;;;16.95;3.00;;;;;;;11.14;100.00;101082.34;5075969;28;20060;-62
2023/01/02 09:04:07;;;;;;;8.68;1.73;;;;;;;10.60;100.00;101086.66;5076261;28;20066;-61
2023/01/02 09:06:37;;;;;;;10.10;1.83;;;;;;;10.31;100.00;101085.78;5075837;28;20049;-63
2023/01/02 09:09:04;;;;;;;7.03;1.70;;;;;;;10.16;100.00;101085.38;5075914;28;20052;-62
2023/01/02 09:11:38;;;;;;;6.60;2.00;;;;;;;10.06;100.00;101094.31;5076119;28;20036;-62
2023/01/02 09:14:05;;;;;;;7.10;2.00;;;;;;;10.11;100.00;101100.84;5076261;28;20049;-62
2023/01/02 09:16:32;;;;;;;8.18;2.22;;;;;;;10.17;100.00;101099.47;5091312;28;20036;-62
2023/01/02 09:19:00;;;;;;;11.57;2.22;;;;;;;10.11;100.00;101100.84;5091243;28;20045;-62
2023/01/02 09:21:28;;;;;;;8.70;2.10;;;;;;;10.11;100.00;101107.97;5075553;28;20052;-62
2023/01/02 09:23:55;;;;;;;5.75;2.10;;;;;;;10.14;100.00;101105.06;5075915;28;20394;-62
2023/01/02 09:26:22;;;;;;;7.97;2.10;;;;;;;10.17;100.00;101113.56;5074522;28;20055;-62
2023/01/02 09:28:49;;;;;;;9.20;2.10;;;;;;;10.09;100.00;101120.53;5075801;28;20541;-62
2023/01/02 09:31:17;;;;;;;5.13;1.90;;;;;;;9.93;100.00;101115.81;5075604;28;20486;-62
2023/01/02 09:33:45;;;;;;;3.28;1.70;;;;;;;9.94;100.00;101120.16;5075419;28;20063;-62
2023/01/02 09:36:16;;;;;;;7.45;2.00;;;;;;;10.03;100.00;101131.72;5075884;28;20044;-62
2023/01/02 09:38:42;;;;;;;5.20;2.17;;;;;;;9.93;100.00;101131.72;5075133;28;20090;-62
2023/01/02 09:41:22;;;;;;;7.80;2.55;;;;;;;9.86;100.00;101146.50;5076483;28;20056;-62
2023/01/02 09:44:02;;;;;;;7.70;2.40;;;;;;;9.89;100.00;101151.53;5076107;28;20060;-62
2023/01/02 09:46:35;;;;;;;4.85;2.22;;;;;;;9.85;100.00;101150.13;5073977;28;20040;-63
2023/01/02 09:49:03;;;;;;;6.63;2.30;;;;;;;9.88;100.00;101155.16;5075519;28;20045;-62
2023/01/02 09:51:32;;;;;;;9.00;2.47;;;;;;;9.89;100.00;101148.88;5075069;28;20048;-62
2023/01/02 09:53:59;;;;;;;6.32;2.70;;;;;;;9.80;100.00;101155.84;5075330;28;20067;-62
2023/01/02 09:56:32;;;;;;;7.05;3.15;;;;;;;9.83;100.00;101163.53;5074949;28;20040;-62
2023/01/02 09:59:37;;;;;;;8.40;3.17;;;;;;;9.89;100.00;101164.78;5074893;28;20075;-62
2023/01/02 10:05:09;;;;;;;7.60;3.45;;;;;;;9.99;100.00;101189.47;5084198;27;20400;-61
2023/01/02 10:07:47;;;;;;;7.43;3.78;;;;;;;9.94;100.00;101195.19;5109927;28;20047;-61
2023/01/02 10:10:25;;;;;;;8.48;4.40;;;;;;;9.92;100.00;101191.00;5110224;28;20043;-61
2023/01/02 10:13:32;;;;;;;8.05;4.15;;;;;;;9.89;100.00;101193.94;5111014;28;20043;-62
2023/01/02 10:16:24;;;;;;;8.65;4.47;;;;;;;9.86;100.00;101203.00;5081191;28;20127;-61
2023/01/02 10:18:54;;;;;;;8.70;4.63;;;;;;;9.87;100.00;101207.31;5086556;28;20059;-61
2023/01/02 10:21:26;;;;;;;10.05;4.53;;;;;;;9.90;100.00;101204.38;5089818;28;20076;-61
2023/01/02 10:24:16;;;;;;;8.55;4.32;;;;;;;9.89;100.00;101204.53;5090496;28;20126;-61
2023/01/02 10:26:48;;;;;;;8.57;4.30;;;;;;;9.95;100.00;101217.22;5091229;28;20044;-61
2023/01/02 10:29:19;;;;;;;;;;;;;;;9.96;100.00;101217.06;5090835;28;20556;-60
2023/01/02 10:31:51;;;;;;;9.85;5.03;;;;;;;10.12;100.00;101202.44;5089539;28;20046;-62
2023/01/02 10:34:22;;;;;;;9.50;4.50;;;;;;;10.01;100.00;101202.59;5087534;28;20397;-61
2023/01/02 10:36:50;;;;;;;9.77;4.57;;;;;;;10.01;100.00;101199.94;5068315;28;20595;-61
2023/01/02 10:39:20;;;;;;;10.23;4.88;;;;;;;10.01;100.00;101203.44;5061520;28;20048;-61
2023/01/02 10:41:51;;;;;;;10.00;4.77;;;;;;;10.01;100.00;101206.06;5061591;28;20040;-61
2023/01/02 10:44:25;;;;;;;9.38;4.57;;;;;;;9.99;100.00;101208.84;5078533;28;20493;-62
2023/01/02 10:46:53;;;;;;;8.65;4.68;;;;;;;10.01;100.00;101218.50;5062390;28;20040;-62
2023/01/02 10:49:22;;;;;;;10.27;4.78;;;;;;;9.98;100.00;101222.25;5078628;28;20683;-61
2023/01/02 10:52:11;;;;;;;10.88;4.90;;;;;;;10.03;100.00;101220.03;5060228;28;20056;-59
2023/01/02 10:54:48;;;;;;;12.75;5.07;;;;;;;10.06;100.00;101224.19;5074931;28;20040;-59
2023/01/02 10:57:24;;;;;;;11.02;4.68;;;;;;;10.04;100.00;101223.50;5066270;28;20387;-59
2023/01/02 10:59:54;;;;;;;12.55;4.93;;;;;;;10.05;100.00;101214.59;5023984;28;20278;-61
2023/01/02 11:02:28;;;;;;;10.93;4.68;;;;;;;9.96;100.00;101205.66;5078406;28;20071;-59
2023/01/02 11:05:01;;;;;;;13.63;6.47;;;;;;;9.99;100.00;101210.69;5061762;28;20067;-61
2023/01/02 11:07:32;;;;;;;15.68;7.97;;;;;;;10.00;100.00;101212.34;5089171;28;20040;-61
2023/01/02 11:10:00;;;;;;;16.27;8.20;;;;;;;9.97;100.00;101218.78;5077638;28;20210;-61
2023/01/02 11:12:26;;;;;;;16.73;8.93;;;;;;;9.99;100.00;101216.81;5059709;28;20301;-61
2023/01/02 11:15:10;;;;;;;15.50;7.30;;;;;;;10.12;100.00;101219.19;5057822;28;20043;-61
2023/01/02 11:17:41;;;;;;;13.77;5.95;;;;;;;10.08;100.00;101223.09;5078692;28;20048;-61
2023/01/02 11:20:30;;;;;;;12.20;5.30;;;;;;;10.02;100.00;101230.75;5083853;28;20051;-61
2023/01/02 11:23:00;;;;;;;11.88;5.93;;;;;;;10.06;100.00;101230.34;5076010;28;20078;-61
2023/01/02 11:25:34;;;;;;;14.00;5.82;;;;;;;10.02;100.00;101223.63;5085086;28;20040;-61
2023/01/02 11:28:02;;;;;;;18.35;6.15;;;;;;;10.05;100.00;101235.78;5077064;28;20048;-61
2023/01/02 11:30:41;;;;;;;13.45;5.95;;;;;;;10.08;100.00;101236.34;5052388;28;20071;-61
2023/01/02 11:36:13;;;;;;;19.77;6.88;;;;;;;10.18;100.00;101231.88;5094511;27;20404;-61
2023/01/02 11:38:48;;;;;;;16.23;6.07;;;;;;;10.04;100.00;101228.81;5116452;28;20042;-61
2023/01/02 11:47:31;;;;;;;15.63;6.50;;;;;;;10.01;100.00;101237.88;5119035;27;20645;-62
2023/01/02 11:49:58;;;;;;;15.70;7.03;;;;;;;9.97;100.00;101226.72;5110870;28;20031;-62
2023/01/02 11:52:33;;;;;;;14.73;5.53;;;;;;;9.74;100.00;101234.06;5117366;27;20066;-61
2023/01/02 11:55:17;;;;;;;16.83;6.47;;;;;;;9.69;100.00;101240.75;5111865;28;20067;-62